sensor_id;sensor_type;location;lat;lon;timestamp;temperature;humidity
12622;DHT22;6376;48.182;-1.644;2023-11-19T00:00:31;14.90;96.30
12622;DHT22;6376;48.182;-1.644;2023-11-19T00:02:57;14.90;96.30
12622;DHT22;6376;48.182;-1.644;2023-11-19T00:05:22;14.90;96.60
12622;DHT22;6376;48.182;-1.644;2023-11-19T00:07:48;14.90;96.60
12622;DHT22;6376;48.182;-1.644;2023-11-19T00:10:14;14.90;96.40
12622;DHT22;6376;48.182;-1.644;2023-11-19T00:12:45;14.90;96.40
12622;DHT22;6376;48.182;-1.644;2023-11-19T00:15:12;14.90;96.30
12622;DHT22;6376;48.182;-1.644;2023-11-19T00:17:38;14.90;96.50
12622;DHT22;6376;48.182;-1.644;2023-11-19T00:20:07;14.90;96.30
12622;DHT22;6376;48.182;-1.644;2023-11-19T00:22:33;14.90;96.30
12622;DHT22;6376;48.182;-1.644;2023-11-19T00:24:59;14.90;96.30
12622;DHT22;6376;48.182;-1.644;2023-11-19T00:27:25;14.90;96.30
12622;DHT22;6376;48.182;-1.644;2023-11-19T00:29:51;14.90;96.30
12622;DHT22;6376;48.182;-1.644;2023-11-19T00:32:17;14.90;96.40
12622;DHT22;6376;48.182;-1.644;2023-11-19T00:34:45;14.90;96.50
12622;DHT22;6376;48.182;-1.644;2023-11-19T00:37:13;14.90;96.30
12622;DHT22;6376;48.182;-1.644;2023-11-19T00:39:39;14.90;96.30
12622;DHT22;6376;48.182;-1.644;2023-11-19T00:42:05;14.90;96.40
12622;DHT22;6376;48.182;-1.644;2023-11-19T00:44:31;14.90;96.30
12622;DHT22;6376;48.182;-1.644;2023-11-19T00:46:56;14.90;96.40
12622;DHT22;6376;48.182;-1.644;2023-11-19T00:49:22;14.90;96.30
12622;DHT22;6376;48.182;-1.644;2023-11-19T00:51:48;14.90;96.30
12622;DHT22;6376;48.182;-1.644;2023-11-19T00:54:14;14.90;96.50
12622;DHT22;6376;48.182;-1.644;2023-11-19T00:56:40;14.90;96.30
12622;DHT22;6376;48.182;-1.644;2023-11-19T00:59:05;14.90;96.40
12622;DHT22;6376;48.182;-1.644;2023-11-19T01:01:31;14.90;96.30
12622;DHT22;6376;48.182;-1.644;2023-11-19T01:03:56;14.90;96.30
12622;DHT22;6376;48.182;-1.644;2023-11-19T01:06:28;14.90;96.30
12622;DHT22;6376;48.182;-1.644;2023-11-19T01:08:54;14.90;96.40
12622;DHT22;6376;48.182;-1.644;2023-11-19T01:11:21;14.90;96.30
12622;DHT22;6376;48.182;-1.644;2023-11-19T01:13:47;14.90;96.30
12622;DHT22;6376;48.182;-1.644;2023-11-19T01:16:13;14.90;96.40
12622;DHT22;6376;48.182;-1.644;2023-11-19T01:18:38;14.90;96.40
12622;DHT22;6376;48.182;-1.644;2023-11-19T01:21:05;14.90;96.30
12622;DHT22;6376;48.182;-1.644;2023-11-19T01:23:30;14.90;96.30
12622;DHT22;6376;48.182;-1.644;2023-11-19T01:25:56;14.90;96.40
12622;DHT22;6376;48.182;-1.644;2023-11-19T01:28:22;14.90;96.30
12622;DHT22;6376;48.182;-1.644;2023-11-19T01:30:50;14.90;96.30
12622;DHT22;6376;48.182;-1.644;2023-11-19T01:33:16;14.90;96.40
12622;DHT22;6376;48.182;-1.644;2023-11-19T01:35:42;14.90;96.30
12622;DHT22;6376;48.182;-1.644;2023-11-19T01:38:07;14.90;96.40
12622;DHT22;6376;48.182;-1.644;2023-11-19T01:40:36;14.90;96.30
12622;DHT22;6376;48.182;-1.644;2023-11-19T01:43:03;14.90;96.40
12622;DHT22;6376;48.182;-1.644;2023-11-19T01:45:30;14.90;96.30
12622;DHT22;6376;48.182;-1.644;2023-11-19T01:47:57;14.90;96.30
12622;DHT22;6376;48.182;-1.644;2023-11-19T01:50:24;14.90;96.40
12622;DHT22;6376;48.182;-1.644;2023-11-19T01:52:52;14.80;96.30
12622;DHT22;6376;48.182;-1.644;2023-11-19T01:55:19;14.90;96.40
12622;DHT22;6376;48.182;-1.644;2023-11-19T01:57:46;14.80;96.70
12622;DHT22;6376;48.182;-1.644;2023-11-19T02:00:12;14.90;96.40
12622;DHT22;6376;48.182;-1.644;2023-11-19T02:02:40;14.90;96.40
12622;DHT22;6376;48.182;-1.644;2023-11-19T02:05:06;14.90;96.50
12622;DHT22;6376;48.182;-1.644;2023-11-19T02:07:32;14.80;96.40
12622;DHT22;6376;48.182;-1.644;2023-11-19T02:09:57;14.80;96.40
12622;DHT22;6376;48.182;-1.644;2023-11-19T02:12:28;14.80;96.40
12622;DHT22;6376;48.182;-1.644;2023-11-19T02:14:54;14.90;96.40
12622;DHT22;6376;48.182;-1.644;2023-11-19T02:17:27;14.90;96.50
12622;DHT22;6376;48.182;-1.644;2023-11-19T02:19:53;14.80;96.50
12622;DHT22;6376;48.182;-1.644;2023-11-19T02:22:19;14.80;96.50
12622;DHT22;6376;48.182;-1.644;2023-11-19T02:24:46;14.80;96.50
12622;DHT22;6376;48.182;-1.644;2023-11-19T02:28:01;14.80;96.50
12622;DHT22;6376;48.182;-1.644;2023-11-19T02:30:02;14.80;96.50
12622;DHT22;6376;48.182;-1.644;2023-11-19T02:32:31;14.80;96.60
12622;DHT22;6376;48.182;-1.644;2023-11-19T02:34:57;14.80;96.50
12622;DHT22;6376;48.182;-1.644;2023-11-19T02:37:22;14.80;96.50
12622;DHT22;6376;48.182;-1.644;2023-11-19T02:39:48;14.80;96.50
12622;DHT22;6376;48.182;-1.644;2023-11-19T02:42:14;14.80;96.50
12622;DHT22;6376;48.182;-1.644;2023-11-19T02:44:44;14.80;96.50
12622;DHT22;6376;48.182;-1.644;2023-11-19T02:47:09;14.80;96.50
12622;DHT22;6376;48.182;-1.644;2023-11-19T02:49:35;14.80;96.50
12622;DHT22;6376;48.182;-1.644;2023-11-19T02:52:03;14.80;96.50
12622;DHT22;6376;48.182;-1.644;2023-11-19T02:54:31;14.80;96.50
12622;DHT22;6376;48.182;-1.644;2023-11-19T02:57:00;14.80;96.90
12622;DHT22;6376;48.182;-1.644;2023-11-19T02:59:28;14.80;96.60
12622;DHT22;6376;48.182;-1.644;2023-11-19T03:02:04;14.80;96.60
12622;DHT22;6376;48.182;-1.644;2023-11-19T03:04:32;14.80;96.60
12622;DHT22;6376;48.182;-1.644;2023-11-19T03:06:58;14.70;96.60
12622;DHT22;6376;48.182;-1.644;2023-11-19T03:09:23;14.80;96.60
12622;DHT22;6376;48.182;-1.644;2023-11-19T03:11:50;14.80;96.60
12622;DHT22;6376;48.182;-1.644;2023-11-19T03:14:15;14.80;96.60
12622;DHT22;6376;48.182;-1.644;2023-11-19T03:16:45;14.80;96.60
12622;DHT22;6376;48.182;-1.644;2023-11-19T03:19:11;14.70;96.60
12622;DHT22;6376;48.182;-1.644;2023-11-19T03:21:37;14.70;96.60
12622;DHT22;6376;48.182;-1.644;2023-11-19T03:24:03;14.80;96.60
12622;DHT22;6376;48.182;-1.644;2023-11-19T03:26:29;14.70;96.60
12622;DHT22;6376;48.182;-1.644;2023-11-19T03:28:55;14.70;96.60
12622;DHT22;6376;48.182;-1.644;2023-11-19T03:31:22;14.70;96.70
12622;DHT22;6376;48.182;-1.644;2023-11-19T03:33:48;14.70;96.70
12622;DHT22;6376;48.182;-1.644;2023-11-19T03:36:14;14.70;96.70
12622;DHT22;6376;48.182;-1.644;2023-11-19T03:38:39;14.70;96.60
12622;DHT22;6376;48.182;-1.644;2023-11-19T03:41:11;14.70;96.60
12622;DHT22;6376;48.182;-1.644;2023-11-19T03:43:38;14.70;96.70
12622;DHT22;6376;48.182;-1.644;2023-11-19T03:46:04;14.70;96.60
12622;DHT22;6376;48.182;-1.644;2023-11-19T03:48:31;14.70;96.70
12622;DHT22;6376;48.182;-1.644;2023-11-19T03:50:56;14.70;96.70
12622;DHT22;6376;48.182;-1.644;2023-11-19T03:53:22;14.70;96.60
12622;DHT22;6376;48.182;-1.644;2023-11-19T03:55:49;14.70;96.60
12622;DHT22;6376;48.182;-1.644;2023-11-19T03:58:15;14.60;96.70
12622;DHT22;6376;48.182;-1.644;2023-11-19T04:00:41;14.70;96.70
12622;DHT22;6376;48.182;-1.644;2023-11-19T04:03:06;14.70;96.80
12622;DHT22;6376;48.182;-1.644;2023-11-19T04:05:32;14.60;96.70
12622;DHT22;6376;48.182;-1.644;2023-11-19T04:07:58;14.60;96.80
12622;DHT22;6376;48.182;-1.644;2023-11-19T04:10:23;14.60;96.70
12622;DHT22;6376;48.182;-1.644;2023-11-19T04:12:49;14.60;96.70
12622;DHT22;6376;48.182;-1.644;2023-11-19T04:15:15;14.60;96.70
12622;DHT22;6376;48.182;-1.644;2023-11-19T04:17:41;14.60;96.80
12622;DHT22;6376;48.182;-1.644;2023-11-19T04:20:07;14.60;96.80
12622;DHT22;6376;48.182;-1.644;2023-11-19T04:22:38;14.60;96.70
12622;DHT22;6376;48.182;-1.644;2023-11-19T04:25:04;14.60;96.70
12622;DHT22;6376;48.182;-1.644;2023-11-19T04:27:30;14.60;96.80
12622;DHT22;6376;48.182;-1.644;2023-11-19T04:29:56;14.60;96.80
12622;DHT22;6376;48.182;-1.644;2023-11-19T04:32:21;14.60;96.80
12622;DHT22;6376;48.182;-1.644;2023-11-19T04:34:47;14.60;96.80
12622;DHT22;6376;48.182;-1.644;2023-11-19T04:37:12;14.60;96.80
12622;DHT22;6376;48.182;-1.644;2023-11-19T04:39:38;14.60;96.80
12622;DHT22;6376;48.182;-1.644;2023-11-19T04:42:04;14.60;96.90
12622;DHT22;6376;48.182;-1.644;2023-11-19T04:44:30;14.60;96.80
12622;DHT22;6376;48.182;-1.644;2023-11-19T04:46:56;14.60;96.90
12622;DHT22;6376;48.182;-1.644;2023-11-19T04:49:21;14.60;96.80
12622;DHT22;6376;48.182;-1.644;2023-11-19T04:51:47;14.60;96.80
12622;DHT22;6376;48.182;-1.644;2023-11-19T04:54:13;14.60;96.90
12622;DHT22;6376;48.182;-1.644;2023-11-19T04:56:39;14.60;96.90
12622;DHT22;6376;48.182;-1.644;2023-11-19T04:59:05;14.60;96.90
12622;DHT22;6376;48.182;-1.644;2023-11-19T05:01:32;14.60;96.90
12622;DHT22;6376;48.182;-1.644;2023-11-19T05:03:59;14.60;96.90
12622;DHT22;6376;48.182;-1.644;2023-11-19T05:06:33;14.60;96.90
12622;DHT22;6376;48.182;-1.644;2023-11-19T05:09:00;14.60;96.90
12622;DHT22;6376;48.182;-1.644;2023-11-19T05:11:33;14.50;96.90
12622;DHT22;6376;48.182;-1.644;2023-11-19T05:13:59;14.50;96.90
12622;DHT22;6376;48.182;-1.644;2023-11-19T05:16:25;14.50;96.90
12622;DHT22;6376;48.182;-1.644;2023-11-19T05:18:51;14.50;97.00
12622;DHT22;6376;48.182;-1.644;2023-11-19T05:21:17;14.50;96.90
12622;DHT22;6376;48.182;-1.644;2023-11-19T05:23:43;14.50;96.90
12622;DHT22;6376;48.182;-1.644;2023-11-19T05:26:09;14.50;97.00
12622;DHT22;6376;48.182;-1.644;2023-11-19T05:28:38;14.50;97.00
12622;DHT22;6376;48.182;-1.644;2023-11-19T05:31:04;14.50;97.00
12622;DHT22;6376;48.182;-1.644;2023-11-19T05:33:31;14.50;97.00
12622;DHT22;6376;48.182;-1.644;2023-11-19T05:35:56;14.50;97.00
12622;DHT22;6376;48.182;-1.644;2023-11-19T05:38:22;14.50;97.00
12622;DHT22;6376;48.182;-1.644;2023-11-19T05:40:48;14.50;97.00
12622;DHT22;6376;48.182;-1.644;2023-11-19T05:43:15;14.50;97.00
12622;DHT22;6376;48.182;-1.644;2023-11-19T05:45:42;14.50;97.00
12622;DHT22;6376;48.182;-1.644;2023-11-19T05:48:08;14.50;97.00
12622;DHT22;6376;48.182;-1.644;2023-11-19T05:50:35;14.50;97.00
12622;DHT22;6376;48.182;-1.644;2023-11-19T05:53:00;14.40;97.00
12622;DHT22;6376;48.182;-1.644;2023-11-19T05:55:26;14.40;97.00
12622;DHT22;6376;48.182;-1.644;2023-11-19T05:57:53;14.50;97.00
12622;DHT22;6376;48.182;-1.644;2023-11-19T06:00:19;14.40;96.90
12622;DHT22;6376;48.182;-1.644;2023-11-19T06:02:45;14.50;97.00
12622;DHT22;6376;48.182;-1.644;2023-11-19T06:05:11;14.50;97.00
12622;DHT22;6376;48.182;-1.644;2023-11-19T06:07:37;14.50;97.00
12622;DHT22;6376;48.182;-1.644;2023-11-19T06:10:04;14.50;97.00
12622;DHT22;6376;48.182;-1.644;2023-11-19T06:12:33;14.50;97.00
12622;DHT22;6376;48.182;-1.644;2023-11-19T06:15:04;14.40;97.00
12622;DHT22;6376;48.182;-1.644;2023-11-19T06:17:30;14.50;97.00
12622;DHT22;6376;48.182;-1.644;2023-11-19T06:19:55;14.50;97.00
12622;DHT22;6376;48.182;-1.644;2023-11-19T06:22:21;14.40;97.00
12622;DHT22;6376;48.182;-1.644;2023-11-19T06:24:47;14.50;97.00
12622;DHT22;6376;48.182;-1.644;2023-11-19T06:27:13;14.50;97.00
12622;DHT22;6376;48.182;-1.644;2023-11-19T06:29:38;14.50;97.00
12622;DHT22;6376;48.182;-1.644;2023-11-19T06:32:06;14.40;97.00
12622;DHT22;6376;48.182;-1.644;2023-11-19T06:34:33;14.50;97.10
12622;DHT22;6376;48.182;-1.644;2023-11-19T06:36:59;14.40;97.00
12622;DHT22;6376;48.182;-1.644;2023-11-19T06:39:25;14.50;97.10
12622;DHT22;6376;48.182;-1.644;2023-11-19T06:41:51;14.40;97.10
12622;DHT22;6376;48.182;-1.644;2023-11-19T06:44:17;14.40;97.00
12622;DHT22;6376;48.182;-1.644;2023-11-19T06:46:43;14.40;97.10
12622;DHT22;6376;48.182;-1.644;2023-11-19T06:49:09;14.40;97.10
12622;DHT22;6376;48.182;-1.644;2023-11-19T06:51:34;14.40;97.10
12622;DHT22;6376;48.182;-1.644;2023-11-19T06:54:00;14.40;97.10
12622;DHT22;6376;48.182;-1.644;2023-11-19T06:56:26;14.40;97.00
12622;DHT22;6376;48.182;-1.644;2023-11-19T06:58:52;14.40;97.00
12622;DHT22;6376;48.182;-1.644;2023-11-19T07:01:19;14.40;97.00
12622;DHT22;6376;48.182;-1.644;2023-11-19T07:03:48;14.40;97.00
12622;DHT22;6376;48.182;-1.644;2023-11-19T07:06:14;14.40;97.10
12622;DHT22;6376;48.182;-1.644;2023-11-19T07:08:41;14.40;97.00
12622;DHT22;6376;48.182;-1.644;2023-11-19T07:11:07;14.40;97.10
12622;DHT22;6376;48.182;-1.644;2023-11-19T07:13:35;14.40;97.10
12622;DHT22;6376;48.182;-1.644;2023-11-19T07:16:01;14.40;97.10
12622;DHT22;6376;48.182;-1.644;2023-11-19T07:18:26;14.40;97.10
12622;DHT22;6376;48.182;-1.644;2023-11-19T07:20:52;14.40;97.10
12622;DHT22;6376;48.182;-1.644;2023-11-19T07:23:18;14.40;97.10
12622;DHT22;6376;48.182;-1.644;2023-11-19T07:25:44;14.40;97.10
12622;DHT22;6376;48.182;-1.644;2023-11-19T07:28:15;14.40;97.10
12622;DHT22;6376;48.182;-1.644;2023-11-19T07:30:40;14.40;97.10
12622;DHT22;6376;48.182;-1.644;2023-11-19T07:33:07;14.40;97.10
12622;DHT22;6376;48.182;-1.644;2023-11-19T07:35:32;14.40;97.10
12622;DHT22;6376;48.182;-1.644;2023-11-19T07:37:58;14.40;97.10
12622;DHT22;6376;48.182;-1.644;2023-11-19T07:40:24;14.30;97.10
12622;DHT22;6376;48.182;-1.644;2023-11-19T07:42:50;14.40;97.10
12622;DHT22;6376;48.182;-1.644;2023-11-19T07:45:16;14.40;97.10
12622;DHT22;6376;48.182;-1.644;2023-11-19T07:47:43;14.40;97.10
12622;DHT22;6376;48.182;-1.644;2023-11-19T07:50:11;14.40;97.10
12622;DHT22;6376;48.182;-1.644;2023-11-19T07:52:39;14.40;97.10
12622;DHT22;6376;48.182;-1.644;2023-11-19T07:55:05;14.40;97.10
12622;DHT22;6376;48.182;-1.644;2023-11-19T07:57:31;14.40;97.10
12622;DHT22;6376;48.182;-1.644;2023-11-19T08:00:00;14.40;97.00
12622;DHT22;6376;48.182;-1.644;2023-11-19T08:02:27;14.40;97.00
12622;DHT22;6376;48.182;-1.644;2023-11-19T08:04:52;14.40;97.10
12622;DHT22;6376;48.182;-1.644;2023-11-19T08:07:23;14.40;97.00
12622;DHT22;6376;48.182;-1.644;2023-11-19T08:09:48;14.40;97.00
12622;DHT22;6376;48.182;-1.644;2023-11-19T08:12:14;14.40;97.00
12622;DHT22;6376;48.182;-1.644;2023-11-19T08:14:41;14.40;97.00
12622;DHT22;6376;48.182;-1.644;2023-11-19T08:17:06;14.40;97.00
12622;DHT22;6376;48.182;-1.644;2023-11-19T08:19:32;14.40;97.00
12622;DHT22;6376;48.182;-1.644;2023-11-19T08:21:58;14.40;96.90
12622;DHT22;6376;48.182;-1.644;2023-11-19T08:24:23;14.50;96.90
12622;DHT22;6376;48.182;-1.644;2023-11-19T08:26:49;14.50;96.90
12622;DHT22;6376;48.182;-1.644;2023-11-19T08:29:15;14.50;96.90
12622;DHT22;6376;48.182;-1.644;2023-11-19T08:31:40;14.50;96.80
12622;DHT22;6376;48.182;-1.644;2023-11-19T08:34:06;14.50;96.90
12622;DHT22;6376;48.182;-1.644;2023-11-19T08:36:34;14.50;96.80
12622;DHT22;6376;48.182;-1.644;2023-11-19T08:39:00;14.50;96.70
12622;DHT22;6376;48.182;-1.644;2023-11-19T08:41:26;14.60;96.80
12622;DHT22;6376;48.182;-1.644;2023-11-19T08:43:52;14.60;96.90
12622;DHT22;6376;48.182;-1.644;2023-11-19T08:46:18;14.60;96.60
12622;DHT22;6376;48.182;-1.644;2023-11-19T08:48:44;14.60;96.60
12622;DHT22;6376;48.182;-1.644;2023-11-19T08:51:09;14.70;96.60
12622;DHT22;6376;48.182;-1.644;2023-11-19T08:53:35;14.70;96.40
12622;DHT22;6376;48.182;-1.644;2023-11-19T08:56:01;14.80;96.30
12622;DHT22;6376;48.182;-1.644;2023-11-19T08:58:28;14.80;96.30
12622;DHT22;6376;48.182;-1.644;2023-11-19T09:00:54;14.80;96.30
12622;DHT22;6376;48.182;-1.644;2023-11-19T09:03:19;14.80;96.20
12622;DHT22;6376;48.182;-1.644;2023-11-19T09:05:45;14.90;96.00
12622;DHT22;6376;48.182;-1.644;2023-11-19T09:08:11;14.90;95.80
12622;DHT22;6376;48.182;-1.644;2023-11-19T09:10:37;14.90;95.60
12622;DHT22;6376;48.182;-1.644;2023-11-19T09:13:03;15.10;95.30
12622;DHT22;6376;48.182;-1.644;2023-11-19T09:15:29;15.20;95.10
12622;DHT22;6376;48.182;-1.644;2023-11-19T09:17:55;15.20;94.80
12622;DHT22;6376;48.182;-1.644;2023-11-19T09:20:21;15.30;94.90
12622;DHT22;6376;48.182;-1.644;2023-11-19T09:22:47;15.30;94.60
12622;DHT22;6376;48.182;-1.644;2023-11-19T09:25:13;15.40;94.40
12622;DHT22;6376;48.182;-1.644;2023-11-19T09:27:42;15.50;94.20
12622;DHT22;6376;48.182;-1.644;2023-11-19T09:30:09;15.60;94.10
12622;DHT22;6376;48.182;-1.644;2023-11-19T09:32:34;15.60;93.80
12622;DHT22;6376;48.182;-1.644;2023-11-19T09:35:00;15.70;93.70
12622;DHT22;6376;48.182;-1.644;2023-11-19T09:37:26;15.70;93.70
12622;DHT22;6376;48.182;-1.644;2023-11-19T09:39:51;15.70;93.60
12622;DHT22;6376;48.182;-1.644;2023-11-19T09:42:19;15.70;93.60
12622;DHT22;6376;48.182;-1.644;2023-11-19T09:44:44;15.70;93.70
12622;DHT22;6376;48.182;-1.644;2023-11-19T09:47:11;15.70;93.70
12622;DHT22;6376;48.182;-1.644;2023-11-19T09:49:39;15.80;93.60
12622;DHT22;6376;48.182;-1.644;2023-11-19T09:52:05;15.70;93.80
12622;DHT22;6376;48.182;-1.644;2023-11-19T09:54:30;15.70;93.70
12622;DHT22;6376;48.182;-1.644;2023-11-19T09:56:57;15.60;93.70
12622;DHT22;6376;48.182;-1.644;2023-11-19T09:59:29;15.60;93.80
12622;DHT22;6376;48.182;-1.644;2023-11-19T10:01:56;15.60;93.90
12622;DHT22;6376;48.182;-1.644;2023-11-19T10:04:23;15.60;94.10
12622;DHT22;6376;48.182;-1.644;2023-11-19T10:06:50;15.50;94.40
12622;DHT22;6376;48.182;-1.644;2023-11-19T10:09:16;15.50;94.10
12622;DHT22;6376;48.182;-1.644;2023-11-19T10:11:42;15.40;94.20
12622;DHT22;6376;48.182;-1.644;2023-11-19T10:14:08;15.50;94.20
12622;DHT22;6376;48.182;-1.644;2023-11-19T10:16:34;15.60;94.00
12622;DHT22;6376;48.182;-1.644;2023-11-19T10:19:00;15.60;93.80
12622;DHT22;6376;48.182;-1.644;2023-11-19T10:21:26;15.60;93.80
12622;DHT22;6376;48.182;-1.644;2023-11-19T10:23:55;15.60;93.80
12622;DHT22;6376;48.182;-1.644;2023-11-19T10:26:23;15.60;93.90
12622;DHT22;6376;48.182;-1.644;2023-11-19T10:28:49;15.70;93.90
12622;DHT22;6376;48.182;-1.644;2023-11-19T10:31:15;15.70;93.70
12622;DHT22;6376;48.182;-1.644;2023-11-19T10:33:42;15.70;93.60
12622;DHT22;6376;48.182;-1.644;2023-11-19T10:36:11;15.70;93.60
12622;DHT22;6376;48.182;-1.644;2023-11-19T10:38:38;15.80;93.70
12622;DHT22;6376;48.182;-1.644;2023-11-19T10:41:04;15.80;93.40
12622;DHT22;6376;48.182;-1.644;2023-11-19T10:43:31;15.80;93.40
12622;DHT22;6376;48.182;-1.644;2023-11-19T10:46:13;15.90;93.40
12622;DHT22;6376;48.182;-1.644;2023-11-19T10:48:39;16.00;93.30
12622;DHT22;6376;48.182;-1.644;2023-11-19T10:51:06;16.00;93.00
12622;DHT22;6376;48.182;-1.644;2023-11-19T10:53:37;16.00;93.00
12622;DHT22;6376;48.182;-1.644;2023-11-19T10:56:06;16.10;92.90
12622;DHT22;6376;48.182;-1.644;2023-11-19T10:58:35;16.10;92.90
12622;DHT22;6376;48.182;-1.644;2023-11-19T11:01:08;16.00;93.10
12622;DHT22;6376;48.182;-1.644;2023-11-19T11:03:39;16.00;93.00
12622;DHT22;6376;48.182;-1.644;2023-11-19T11:06:06;16.00;93.10
12622;DHT22;6376;48.182;-1.644;2023-11-19T11:08:32;15.90;93.30
12622;DHT22;6376;48.182;-1.644;2023-11-19T11:11:00;15.90;93.20
12622;DHT22;6376;48.182;-1.644;2023-11-19T11:13:27;16.00;93.00
12622;DHT22;6376;48.182;-1.644;2023-11-19T11:15:56;16.00;93.10
12622;DHT22;6376;48.182;-1.644;2023-11-19T11:18:23;15.90;93.20
12622;DHT22;6376;48.182;-1.644;2023-11-19T11:20:53;15.90;93.30
12622;DHT22;6376;48.182;-1.644;2023-11-19T11:37:18;15.70;93.60
12622;DHT22;6376;48.182;-1.644;2023-11-19T11:39:47;15.70;93.70
12622;DHT22;6376;48.182;-1.644;2023-11-19T11:45:06;15.70;93.80
12622;DHT22;6376;48.182;-1.644;2023-11-19T11:50:19;15.70;93.80
12622;DHT22;6376;48.182;-1.644;2023-11-19T11:53:18;15.70;93.80
12622;DHT22;6376;48.182;-1.644;2023-11-19T11:58:19;15.70;93.80
12622;DHT22;6376;48.182;-1.644;2023-11-19T12:00:47;15.70;93.80
12622;DHT22;6376;48.182;-1.644;2023-11-19T12:03:14;15.70;93.80
12622;DHT22;6376;48.182;-1.644;2023-11-19T12:05:44;15.70;93.80
12622;DHT22;6376;48.182;-1.644;2023-11-19T12:08:11;15.70;93.80
12622;DHT22;6376;48.182;-1.644;2023-11-19T12:10:46;15.60;93.80
12622;DHT22;6376;48.182;-1.644;2023-11-19T12:13:15;15.60;93.80
12622;DHT22;6376;48.182;-1.644;2023-11-19T12:18:28;15.70;93.80
12622;DHT22;6376;48.182;-1.644;2023-11-19T12:20:55;15.70;93.80
12622;DHT22;6376;48.182;-1.644;2023-11-19T12:23:24;15.60;93.80
12622;DHT22;6376;48.182;-1.644;2023-11-19T12:25:50;15.60;93.80
12622;DHT22;6376;48.182;-1.644;2023-11-19T12:28:16;15.70;93.80
12622;DHT22;6376;48.182;-1.644;2023-11-19T12:30:43;15.60;93.80
12622;DHT22;6376;48.182;-1.644;2023-11-19T12:33:09;15.60;93.80
12622;DHT22;6376;48.182;-1.644;2023-11-19T12:35:39;15.70;93.90
12622;DHT22;6376;48.182;-1.644;2023-11-19T12:38:05;15.60;93.90
12622;DHT22;6376;48.182;-1.644;2023-11-19T12:40:31;15.60;93.90
12622;DHT22;6376;48.182;-1.644;2023-11-19T12:42:57;15.60;94.20
12622;DHT22;6376;48.182;-1.644;2023-11-19T12:45:24;15.60;93.80
12622;DHT22;6376;48.182;-1.644;2023-11-19T12:48:07;15.60;93.80
12622;DHT22;6376;48.182;-1.644;2023-11-19T12:50:59;15.60;93.80
12622;DHT22;6376;48.182;-1.644;2023-11-19T12:53:27;15.60;93.90
12622;DHT22;6376;48.182;-1.644;2023-11-19T12:55:55;15.60;93.90
12622;DHT22;6376;48.182;-1.644;2023-11-19T12:58:35;15.60;93.60
12622;DHT22;6376;48.182;-1.644;2023-11-19T13:01:07;15.60;94.20
12622;DHT22;6376;48.182;-1.644;2023-11-19T13:03:36;15.60;93.80
12622;DHT22;6376;48.182;-1.644;2023-11-19T13:06:08;15.60;93.80
12622;DHT22;6376;48.182;-1.644;2023-11-19T13:08:41;15.60;93.80
12622;DHT22;6376;48.182;-1.644;2023-11-19T13:11:08;15.60;93.90
12622;DHT22;6376;48.182;-1.644;2023-11-19T13:13:57;15.60;93.80
12622;DHT22;6376;48.182;-1.644;2023-11-19T13:16:23;15.50;93.60
12622;DHT22;6376;48.182;-1.644;2023-11-19T13:18:49;15.60;93.70
12622;DHT22;6376;48.182;-1.644;2023-11-19T13:21:15;15.50;93.40
12622;DHT22;6376;48.182;-1.644;2023-11-19T13:23:40;15.50;93.50
12622;DHT22;6376;48.182;-1.644;2023-11-19T13:26:06;15.50;93.60
12622;DHT22;6376;48.182;-1.644;2023-11-19T13:28:32;15.40;93.50
12622;DHT22;6376;48.182;-1.644;2023-11-19T13:30:58;15.40;93.70
12622;DHT22;6376;48.182;-1.644;2023-11-19T13:33:24;15.40;93.60
12622;DHT22;6376;48.182;-1.644;2023-11-19T13:35:49;15.40;93.70
12622;DHT22;6376;48.182;-1.644;2023-11-19T13:38:15;15.40;94.30
12622;DHT22;6376;48.182;-1.644;2023-11-19T13:40:41;15.40;94.10
12622;DHT22;6376;48.182;-1.644;2023-11-19T13:43:06;15.40;93.70
12622;DHT22;6376;48.182;-1.644;2023-11-19T13:45:33;15.40;93.80
12622;DHT22;6376;48.182;-1.644;2023-11-19T13:47:58;15.30;93.80
12622;DHT22;6376;48.182;-1.644;2023-11-19T13:50:24;15.30;93.90
12622;DHT22;6376;48.182;-1.644;2023-11-19T13:52:50;15.30;93.80
12622;DHT22;6376;48.182;-1.644;2023-11-19T13:55:15;15.30;93.80
12622;DHT22;6376;48.182;-1.644;2023-11-19T13:57:42;15.30;93.90
12622;DHT22;6376;48.182;-1.644;2023-11-19T14:00:12;15.30;94.10
12622;DHT22;6376;48.182;-1.644;2023-11-19T14:02:41;15.40;94.10
12622;DHT22;6376;48.182;-1.644;2023-11-19T14:05:08;15.40;94.00
12622;DHT22;6376;48.182;-1.644;2023-11-19T14:07:34;15.40;94.00
12622;DHT22;6376;48.182;-1.644;2023-11-19T14:10:00;15.40;93.90
12622;DHT22;6376;48.182;-1.644;2023-11-19T14:12:26;15.30;93.90
12622;DHT22;6376;48.182;-1.644;2023-11-19T14:14:52;15.30;94.00
12622;DHT22;6376;48.182;-1.644;2023-11-19T14:17:17;15.30;94.00
12622;DHT22;6376;48.182;-1.644;2023-11-19T14:19:44;15.30;94.10
12622;DHT22;6376;48.182;-1.644;2023-11-19T14:22:10;15.30;94.00
12622;DHT22;6376;48.182;-1.644;2023-11-19T14:24:35;15.40;94.10
12622;DHT22;6376;48.182;-1.644;2023-11-19T14:27:01;15.40;94.10
12622;DHT22;6376;48.182;-1.644;2023-11-19T14:29:27;15.40;94.10
12622;DHT22;6376;48.182;-1.644;2023-11-19T14:31:56;15.40;94.00
12622;DHT22;6376;48.182;-1.644;2023-11-19T14:34:22;15.40;93.90
12622;DHT22;6376;48.182;-1.644;2023-11-19T14:36:48;15.40;93.90
12622;DHT22;6376;48.182;-1.644;2023-11-19T14:39:14;15.40;93.90
12622;DHT22;6376;48.182;-1.644;2023-11-19T14:41:40;15.40;93.70
12622;DHT22;6376;48.182;-1.644;2023-11-19T14:44:06;15.30;93.60
12622;DHT22;6376;48.182;-1.644;2023-11-19T14:46:31;15.30;93.60
12622;DHT22;6376;48.182;-1.644;2023-11-19T14:48:57;15.30;93.70
12622;DHT22;6376;48.182;-1.644;2023-11-19T14:51:24;15.30;93.80
12622;DHT22;6376;48.182;-1.644;2023-11-19T14:53:49;15.30;93.80
12622;DHT22;6376;48.182;-1.644;2023-11-19T14:56:15;15.20;93.70
12622;DHT22;6376;48.182;-1.644;2023-11-19T14:58:41;15.20;93.80
12622;DHT22;6376;48.182;-1.644;2023-11-19T15:01:11;15.30;93.90
12622;DHT22;6376;48.182;-1.644;2023-11-19T15:03:37;15.20;93.90
12622;DHT22;6376;48.182;-1.644;2023-11-19T15:06:03;15.20;93.90
12622;DHT22;6376;48.182;-1.644;2023-11-19T15:08:28;15.20;93.80
12622;DHT22;6376;48.182;-1.644;2023-11-19T15:10:55;15.20;93.90
12622;DHT22;6376;48.182;-1.644;2023-11-19T15:13:23;15.20;93.80
12622;DHT22;6376;48.182;-1.644;2023-11-19T15:15:49;15.20;93.90
12622;DHT22;6376;48.182;-1.644;2023-11-19T15:18:15;15.20;93.90
12622;DHT22;6376;48.182;-1.644;2023-11-19T15:20:42;15.10;93.90
12622;DHT22;6376;48.182;-1.644;2023-11-19T15:23:12;15.20;94.00
12622;DHT22;6376;48.182;-1.644;2023-11-19T15:25:38;15.20;94.10
12622;DHT22;6376;48.182;-1.644;2023-11-19T15:28:04;15.20;94.20
12622;DHT22;6376;48.182;-1.644;2023-11-19T15:30:30;15.10;94.10
12622;DHT22;6376;48.182;-1.644;2023-11-19T15:32:55;15.10;94.20
12622;DHT22;6376;48.182;-1.644;2023-11-19T15:35:21;15.10;94.20
12622;DHT22;6376;48.182;-1.644;2023-11-19T15:37:46;15.10;94.30
12622;DHT22;6376;48.182;-1.644;2023-11-19T15:40:12;15.10;94.30
12622;DHT22;6376;48.182;-1.644;2023-11-19T15:42:39;15.00;94.30
12622;DHT22;6376;48.182;-1.644;2023-11-19T15:45:11;15.00;94.40
12622;DHT22;6376;48.182;-1.644;2023-11-19T15:47:37;15.00;94.50
12622;DHT22;6376;48.182;-1.644;2023-11-19T15:50:04;15.00;94.50
12622;DHT22;6376;48.182;-1.644;2023-11-19T15:52:30;15.00;94.60